Time;durP1;ratioP1;P1;durP2;ratioP2;P2;SDS_P1;SDS_P2;PMS_P1;PMS_P2;Temp;Humidity;BMP_temperature;BMP_pressure;BME280_temperature;BME280_humidity;BME280_pressure;Samples;Min_cycle;Max_cycle;Signal;HPM_P1;HPM_P2
2021/11/29 00:01:51;;;;;;;8.32;5.28;;;;;;;-145.06;0.00;60892.56;4808387;28;20027;-88
2021/11/29 00:04:30;;;;;;;7.18;5.05;;;;;;;10.68;0.00;60892.56;4806782;28;20070;-88
2021/11/29 00:07:10;;;;;;;7.00;5.27;;;;;;;187.52;0.00;60892.56;4807760;28;20113;-88
2021/11/29 00:09:49;;;;;;;7.00;4.90;;;;;;;-145.06;0.00;60892.56;4824945;28;20480;-88
2021/11/29 00:12:27;;;;;;;6.57;4.32;;;;;;;-145.06;0.00;60892.56;4827022;28;20140;-88
2021/11/29 00:15:08;;;;;;;7.03;4.80;;;;;;;-145.06;0.00;60892.56;4823290;28;20364;-88
2021/11/29 00:17:48;;;;;;;5.32;3.40;;;;;;;-145.06;0.00;60892.56;4820263;28;20057;-87
2021/11/29 00:20:27;;;;;;;4.88;3.70;;;;;;;5.49;0.00;60892.56;4810731;28;20062;-88
2021/11/29 00:23:06;;;;;;;5.43;4.25;;;;;;;5.49;0.00;60892.56;4821258;28;20034;-89
2021/11/29 00:25:45;;;;;;;6.40;4.00;;;;;;;5.49;0.00;60892.56;4814778;28;20027;-89
2021/11/29 00:28:25;;;;;;;7.18;4.70;;;;;;;187.52;0.00;60892.56;4804914;28;20262;-89
2021/11/29 00:31:04;;;;;;;6.50;4.32;;;;;;;2.39;0.00;60892.56;4802708;28;20595;-88
2021/11/29 00:33:43;;;;;;;5.77;4.00;;;;;;;-145.06;0.00;60892.56;4825970;28;20034;-88
2021/11/29 00:36:22;;;;;;;5.25;3.90;;;;;;;-145.06;0.00;60892.56;4812347;28;20289;-88
2021/11/29 00:39:01;;;;;;;6.40;4.13;;;;;;;-145.06;0.00;60892.56;4827824;28;20444;-88
2021/11/29 00:41:39;;;;;;;5.97;3.73;;;;;;;2.36;0.00;60892.56;4819518;28;20285;-89
2021/11/29 00:44:19;;;;;;;4.93;3.63;;;;;;;-145.06;0.00;60892.56;4804917;28;20066;-87
2021/11/29 00:46:58;;;;;;;5.00;3.75;;;;;;;21.08;0.00;60892.56;4811068;28;20609;-88
2021/11/29 00:49:37;;;;;;;6.80;4.33;;;;;;;-145.06;0.00;60892.56;4802621;28;20042;-89
2021/11/29 00:52:16;;;;;;;5.20;3.90;;;;;;;-145.06;0.00;60892.56;4816856;28;20042;-87
2021/11/29 00:54:57;;;;;;;5.97;3.97;;;;;;;187.52;0.00;60892.56;4826739;28;20034;-88
2021/11/29 00:57:37;;;;;;;6.13;4.20;;;;;;;21.08;0.00;60892.56;4817548;28;20034;-88
2021/11/29 01:00:20;;;;;;;5.93;4.07;;;;;;;-145.06;0.00;60892.56;4821162;28;20042;-89
2021/11/29 01:03:00;;;;;;;8.32;4.70;;;;;;;-145.06;0.00;60892.56;4832393;28;20067;-88
2021/11/29 01:05:38;;;;;;;7.43;4.97;;;;;;;-145.06;0.00;60892.56;4815082;28;20038;-88
2021/11/29 01:08:18;;;;;;;8.02;5.25;;;;;;;-145.06;0.00;60892.56;4823881;28;20030;-87
2021/11/29 01:10:56;;;;;;;7.13;4.35;;;;;;;-145.06;0.00;60892.56;4812616;28;20030;-88
2021/11/29 01:13:36;;;;;;;6.50;4.38;;;;;;;-145.06;0.00;60892.56;4818171;28;20022;-88
2021/11/29 01:16:15;;;;;;;7.68;4.95;;;;;;;-145.06;0.00;60892.56;4814904;28;20506;-88
2021/11/29 01:18:54;;;;;;;6.23;4.70;;;;;;;-145.06;0.00;60892.56;4819335;28;20034;-88
2021/11/29 01:21:32;;;;;;;7.23;4.70;;;;;;;-145.06;0.00;60892.56;4814839;28;20368;-88
2021/11/29 01:24:11;;;;;;;6.77;4.87;;;;;;;-145.06;0.00;60892.56;4825978;28;20467;-88
2021/11/29 01:26:50;;;;;;;7.60;5.20;;;;;;;-145.06;0.00;60892.56;4814208;28;20030;-87
2021/11/29 01:29:30;;;;;;;8.63;5.65;;;;;;;-145.06;0.00;60892.56;4819023;28;20034;-88
2021/11/29 01:32:09;;;;;;;10.70;6.40;;;;;;;-145.06;0.00;60892.56;4811676;28;20034;-88
2021/11/29 01:34:48;;;;;;;9.43;5.80;;;;;;;-145.06;0.00;60892.56;4824176;28;20030;-87
2021/11/29 01:37:27;;;;;;;8.90;5.63;;;;;;;-145.06;0.00;60892.56;4814113;28;20037;-88
2021/11/29 01:40:08;;;;;;;7.23;5.33;;;;;;;-145.06;0.00;60892.56;4833984;28;20034;-87
2021/11/29 01:43:00;;;;;;;7.72;5.53;;;;;;;-145.06;0.00;60892.56;4811221;28;20317;-87
2021/11/29 01:45:49;;;;;;;8.15;4.85;;;;;;;-145.06;0.00;60892.56;4808620;28;20150;-88
2021/11/29 01:48:28;;;;;;;7.90;5.03;;;;;;;-145.06;0.00;60892.56;4820928;28;20045;-88
2021/11/29 01:51:07;;;;;;;7.43;5.03;;;;;;;-145.06;0.00;60892.56;4823763;28;20386;-88
2021/11/29 01:53:46;;;;;;;7.27;5.23;;;;;;;-145.06;0.00;60892.56;4818667;28;20750;-88
2021/11/29 01:56:26;;;;;;;7.35;4.68;;;;;;;-145.06;0.00;60892.56;4811283;28;20113;-88
2021/11/29 01:59:05;;;;;;;6.97;4.45;;;;;;;-145.06;0.00;60892.56;4808607;28;20117;-88
2021/11/29 02:01:44;;;;;;;5.68;4.35;;;;;;;-145.06;0.00;60892.56;4803851;28;20030;-88
2021/11/29 02:04:24;;;;;;;5.10;3.97;;;;;;;-145.06;0.00;60892.56;4811090;28;20545;-88
2021/11/29 02:07:03;;;;;;;5.63;3.63;;;;;;;-145.06;0.00;60892.56;4808772;28;20026;-88
2021/11/29 02:09:42;;;;;;;6.37;4.23;;;;;;;-145.06;0.00;60892.56;4820710;28;20033;-88
2021/11/29 02:12:21;;;;;;;8.23;4.97;;;;;;;-145.06;0.00;60892.56;4812561;28;20031;-88
2021/11/29 02:15:00;;;;;;;6.45;4.40;;;;;;;-145.06;0.00;60892.56;4814369;28;20058;-89
2021/11/29 02:17:41;;;;;;;6.30;3.93;;;;;;;2.89;0.00;60892.56;4815794;28;20074;-88
2021/11/29 02:20:21;;;;;;;4.68;3.55;;;;;;;-145.06;0.00;60892.56;4817518;28;20301;-89
2021/11/29 02:23:00;;;;;;;6.07;3.90;;;;;;;-145.06;0.00;60892.56;4811963;28;20523;-88
2021/11/29 02:25:42;;;;;;;;;;;;;;;-145.06;0.00;60892.56;4819783;28;20038;-87
2021/11/29 02:28:23;;;;;;;5.43;3.33;;;;;;;-145.06;0.00;60892.56;4813432;28;19913;-88
2021/11/29 02:31:07;;;;;;;5.03;3.40;;;;;;;-145.06;0.00;60892.56;4815701;28;20113;-88
2021/11/29 02:33:46;;;;;;;5.70;3.40;;;;;;;2.89;0.00;60892.56;4813116;28;20038;-87
2021/11/29 02:36:28;;;;;;;4.43;3.42;;;;;;;5.49;0.00;60892.56;4818034;28;20385;-88
2021/11/29 02:39:09;;;;;;;4.45;3.40;;;;;;;-145.06;0.00;60892.56;4825005;28;20038;-88
2021/11/29 02:41:50;;;;;;;4.22;3.33;;;;;;;-145.06;0.00;60892.56;4830293;28;20031;-89
2021/11/29 02:44:29;;;;;;;4.63;3.13;;;;;;;-145.06;0.00;60892.56;4822557;28;20393;-89
2021/11/29 02:47:08;;;;;;;4.03;2.80;;;;;;;-145.06;0.00;60892.56;4812332;28;20035;-89
2021/11/29 02:49:48;;;;;;;4.03;3.13;;;;;;;-145.06;0.00;60892.56;4804640;28;20281;-89
2021/11/29 02:52:27;;;;;;;4.35;3.15;;;;;;;-145.06;0.00;60892.56;4826169;28;20038;-88
2021/11/29 02:55:08;;;;;;;3.30;2.67;;;;;;;-145.06;0.00;60892.56;4835078;28;20070;-89
2021/11/29 02:57:47;;;;;;;6.72;3.03;;;;;;;-145.06;0.00;60892.56;4821944;28;20034;-88
2021/11/29 03:00:26;;;;;;;3.50;2.63;;;;;;;-145.06;0.00;60892.56;4815288;28;20033;-88
2021/11/29 03:03:09;;;;;;;3.60;2.70;;;;;;;-145.06;0.00;60892.56;4821129;28;20061;-89
2021/11/29 03:05:48;;;;;;;4.95;2.83;;;;;;;-145.06;0.00;60892.56;4818200;28;20030;-88
2021/11/29 03:08:26;;;;;;;3.13;2.50;;;;;;;-145.06;0.00;60892.56;4816991;28;20025;-88
2021/11/29 03:11:05;;;;;;;3.80;2.67;;;;;;;-145.06;0.00;60892.56;4819949;28;20515;-89
2021/11/29 03:13:47;;;;;;;3.30;2.53;;;;;;;-145.06;0.00;60892.56;4808608;28;20282;-88
2021/11/29 03:16:26;;;;;;;3.13;2.30;;;;;;;-145.06;0.00;60892.56;4816772;28;20484;-89
2021/11/29 03:19:05;;;;;;;5.20;3.13;;;;;;;-145.06;0.00;60892.56;4819616;28;20062;-89
2021/11/29 03:21:44;;;;;;;4.43;2.73;;;;;;;-145.06;0.00;60892.56;4824047;28;20042;-89
2021/11/29 03:24:23;;;;;;;4.22;2.85;;;;;;;-145.06;0.00;60892.56;4817432;28;20281;-88
2021/11/29 03:27:03;;;;;;;7.93;3.10;;;;;;;-145.06;0.00;60892.56;4800990;28;20643;-89
2021/11/29 03:29:47;;;;;;;3.05;2.42;;;;;;;-145.06;0.00;60892.56;4818534;28;20449;-89
2021/11/29 03:32:26;;;;;;;3.53;2.35;;;;;;;-145.06;0.00;60892.56;4816243;28;20023;-88
2021/11/29 03:35:08;;;;;;;3.03;2.42;;;;;;;-145.06;0.00;60892.56;4822015;28;20034;-89
2021/11/29 03:37:47;;;;;;;3.15;2.45;;;;;;;-145.06;0.00;60892.56;4825311;28;20042;-88
2021/11/29 03:40:26;;;;;;;3.22;2.35;;;;;;;-145.06;0.00;60892.56;4821184;28;20038;-88
2021/11/29 03:43:06;;;;;;;3.67;2.70;;;;;;;-145.06;0.00;60892.56;4833850;28;20041;-88
2021/11/29 03:45:45;;;;;;;4.45;2.92;;;;;;;-145.06;0.00;60892.56;4821515;28;20026;-89
2021/11/29 03:48:24;;;;;;;4.95;3.15;;;;;;;-145.06;0.00;60892.56;4825172;28;20607;-88
2021/11/29 03:51:04;;;;;;;4.40;3.45;;;;;;;-145.06;0.00;60892.56;4821081;28;20027;-89
2021/11/29 03:53:43;;;;;;;5.22;3.60;;;;;;;-145.06;0.00;60892.56;4815693;28;20050;-89
2021/11/29 03:56:23;;;;;;;4.82;3.55;;;;;;;-145.06;0.00;60892.56;4839502;28;20033;-89
2021/11/29 03:59:03;;;;;;;5.10;3.33;;;;;;;-145.06;0.00;60892.56;4808056;28;20039;-89
2021/11/29 04:01:44;;;;;;;6.05;4.00;;;;;;;-145.06;0.00;60892.56;4802360;28;20039;-89
2021/11/29 04:04:23;;;;;;;4.70;3.78;;;;;;;-145.06;0.00;60892.56;4816342;28;20121;-89
2021/11/29 04:07:02;;;;;;;5.18;3.67;;;;;;;-145.06;0.00;60892.56;4820296;28;20034;-88
2021/11/29 04:09:41;;;;;;;4.38;3.60;;;;;;;-145.06;0.00;60892.56;4815727;28;20034;-88
2021/11/29 04:12:22;;;;;;;5.50;4.15;;;;;;;-145.06;0.00;60892.56;4819989;28;20026;-88
2021/11/29 04:15:01;;;;;;;5.32;4.28;;;;;;;-145.06;0.00;60892.56;4807370;28;20504;-88
2021/11/29 04:17:40;;;;;;;;;;;;;;;-145.06;0.00;60892.56;4826541;28;20026;-88
2021/11/29 04:20:20;;;;;;;7.70;4.70;;;;;;;-145.06;0.00;60892.56;4814594;28;19914;-88
2021/11/29 04:22:59;;;;;;;5.45;4.38;;;;;;;-145.06;0.00;60892.56;4819859;28;20035;-88
2021/11/29 04:25:49;;;;;;;4.80;4.07;;;;;;;-145.06;0.00;60892.56;4817079;28;20041;-88
2021/11/29 04:28:28;;;;;;;5.13;4.00;;;;;;;-145.06;0.00;60892.56;4817983;28;20031;-88
2021/11/29 04:31:07;;;;;;;5.97;4.72;;;;;;;-145.06;0.00;60892.56;4820427;28;20030;-87
2021/11/29 04:33:47;;;;;;;6.78;4.47;;;;;;;-145.06;0.00;60892.56;4814325;28;20488;-88
2021/11/29 04:36:25;;;;;;;5.25;4.53;;;;;;;-145.06;0.00;60892.56;4827548;28;20364;-87
2021/11/29 04:39:06;;;;;;;7.00;5.40;;;;;;;-145.06;0.00;60892.56;4821026;28;20042;-88
2021/11/29 04:41:45;;;;;;;8.00;6.15;;;;;;;-145.06;0.00;60892.56;4821163;28;20393;-88
2021/11/29 04:44:24;;;;;;;6.82;5.15;;;;;;;-145.06;0.00;60892.56;4819836;28;20488;-88
2021/11/29 04:47:03;;;;;;;7.63;5.30;;;;;;;-145.06;0.00;60892.56;4816619;28;20046;-88
2021/11/29 04:49:43;;;;;;;6.83;4.77;;;;;;;-145.06;0.00;60892.56;4817073;28;20452;-88
2021/11/29 04:52:22;;;;;;;4.43;3.83;;;;;;;-145.06;0.00;60892.56;4816768;28;20023;-89
2021/11/29 04:55:01;;;;;;;5.20;3.90;;;;;;;-145.06;0.00;60892.56;4834857;28;20037;-87
2021/11/29 04:57:41;;;;;;;6.68;4.93;;;;;;;-145.06;0.00;60892.56;4824588;28;20066;-87
2021/11/29 05:00:21;;;;;;;6.30;4.70;;;;;;;-145.06;0.00;60892.56;4810171;28;20042;-87
2021/11/29 05:03:00;;;;;;;6.28;4.45;;;;;;;-145.06;0.00;60892.56;4820181;28;20476;-87
2021/11/29 05:05:39;;;;;;;5.00;4.13;;;;;;;-145.06;0.00;60892.56;4806819;28;20124;-88
2021/11/29 05:08:18;;;;;;;5.13;3.95;;;;;;;-145.06;0.00;60892.56;4818478;28;20034;-88
2021/11/29 05:10:57;;;;;;;4.22;3.53;;;;;;;-145.06;0.00;60892.56;4819838;28;20031;-87
2021/11/29 05:13:36;;;;;;;5.78;4.63;;;;;;;-145.06;0.00;60892.56;4821491;28;20073;-89
2021/11/29 05:16:15;;;;;;;5.65;4.53;;;;;;;-145.06;0.00;60892.56;4819851;28;20480;-89
2021/11/29 05:18:55;;;;;;;7.18;4.55;;;;;;;-145.06;0.00;60892.56;4823349;28;20038;-89
2021/11/29 05:21:35;;;;;;;5.00;3.75;;;;;;;-145.06;0.00;60892.56;4819270;28;20030;-87
2021/11/29 05:24:14;;;;;;;6.95;4.07;;;;;;;-145.06;0.00;60892.56;4803897;28;20038;-88
2021/11/29 05:26:53;;;;;;;5.20;4.40;;;;;;;-145.06;0.00;60892.56;4817414;28;20033;-88
2021/11/29 05:29:32;;;;;;;4.90;4.05;;;;;;;-145.06;0.00;60892.56;4821154;28;20066;-89
2021/11/29 05:32:11;;;;;;;7.03;4.40;;;;;;;-145.06;0.00;60892.56;4804470;28;20031;-88
2021/11/29 05:34:50;;;;;;;5.17;3.97;;;;;;;-145.06;0.00;60892.56;4806355;28;20046;-89
2021/11/29 05:37:29;;;;;;;5.53;3.70;;;;;;;-145.06;0.00;60892.56;4814297;28;20038;-89
2021/11/29 05:40:08;;;;;;;5.38;3.83;;;;;;;-145.06;0.00;60892.56;4812794;28;20273;-89
2021/11/29 05:42:48;;;;;;;;;;;;;;;-145.06;0.00;60892.56;4810035;28;20058;-89
2021/11/29 05:45:26;;;;;;;6.57;4.67;;;;;;;-145.06;0.00;60892.56;4812161;28;20356;-89
2021/11/29 05:48:06;;;;;;;6.97;4.50;;;;;;;-145.06;0.00;60892.56;4813825;28;20026;-89
2021/11/29 05:50:45;;;;;;;5.75;3.95;;;;;;;-145.06;0.00;60892.56;4819150;28;20029;-89
2021/11/29 05:53:25;;;;;;;9.35;5.95;;;;;;;-145.06;0.00;60892.56;4816650;28;20038;-87
2021/11/29 05:56:04;;;;;;;7.65;5.50;;;;;;;-145.06;0.00;60892.56;4814330;28;20031;-89
2021/11/29 05:58:44;;;;;;;8.48;5.03;;;;;;;-145.06;0.00;60892.56;4820513;28;20037;-88
2021/11/29 06:01:23;;;;;;;8.30;5.25;;;;;;;-145.06;0.00;60892.56;4822379;28;20125;-89
2021/11/29 06:04:02;;;;;;;9.17;5.47;;;;;;;-145.06;0.00;60892.56;4811359;28;20374;-88
2021/11/29 06:06:42;;;;;;;8.93;5.32;;;;;;;-145.06;0.00;60892.56;4812527;28;20460;-89
2021/11/29 06:09:21;;;;;;;7.75;4.93;;;;;;;-145.06;0.00;60892.56;4811292;28;20043;-88
2021/11/29 06:12:00;;;;;;;8.73;5.60;;;;;;;5.49;0.00;60892.56;4813371;28;20393;-89
2021/11/29 06:14:39;;;;;;;5.97;4.10;;;;;;;-145.06;0.00;60892.56;4811763;28;20042;-88
2021/11/29 06:17:18;;;;;;;4.93;3.58;;;;;;;-145.06;0.00;60892.56;4830325;28;20038;-88
2021/11/29 06:19:57;;;;;;;7.15;4.53;;;;;;;-145.06;0.00;60892.56;4805359;28;20035;-88
2021/11/29 06:22:36;;;;;;;6.60;4.35;;;;;;;-145.06;0.00;60892.56;4804932;28;20038;-88
2021/11/29 06:25:15;;;;;;;5.18;3.70;;;;;;;187.52;0.00;60892.56;4819379;28;20038;-87
2021/11/29 06:27:55;;;;;;;4.72;3.25;;;;;;;10.68;0.00;60892.56;4820488;28;20042;-88
2021/11/29 06:30:34;;;;;;;6.28;3.85;;;;;;;-145.06;0.00;60892.56;4813464;28;20039;-88
2021/11/29 06:33:13;;;;;;;5.65;3.45;;;;;;;-145.06;0.00;60892.56;4821203;28;20033;-88
2021/11/29 06:35:58;;;;;;;7.73;4.43;;;;;;;-145.06;0.00;60892.56;4811606;28;20026;-88
2021/11/29 06:38:37;;;;;;;7.18;4.10;;;;;;;2.89;0.00;60892.56;4810275;28;20277;-89
2021/11/29 06:41:16;;;;;;;6.40;4.47;;;;;;;5.49;0.00;60892.56;4811749;28;20031;-87
2021/11/29 06:43:55;;;;;;;6.50;4.45;;;;;;;-145.06;0.00;60892.56;4819321;28;20031;-87
2021/11/29 06:46:34;;;;;;;5.60;3.78;;;;;;;-145.06;0.00;60892.56;4817887;28;20035;-88
2021/11/29 06:49:13;;;;;;;5.43;3.67;;;;;;;187.52;0.00;60892.56;4814334;28;20108;-88
2021/11/29 06:51:52;;;;;;;6.17;3.70;;;;;;;-145.06;0.00;60892.56;4813506;28;20269;-88
2021/11/29 06:54:33;;;;;;;8.48;5.15;;;;;;;-145.06;0.00;60892.56;4830234;28;20054;-88
2021/11/29 06:57:14;;;;;;;9.98;6.03;;;;;;;-145.06;0.00;60892.56;4814846;28;20066;-89
2021/11/29 06:59:54;;;;;;;8.80;5.70;;;;;;;-145.06;0.00;60892.56;4807862;28;20520;-89
2021/11/29 07:02:33;;;;;;;9.07;5.78;;;;;;;2.34;0.00;60892.56;4810853;28;20054;-88
2021/11/29 07:05:13;;;;;;;9.17;5.87;;;;;;;-145.06;0.00;60892.56;4817093;28;20065;-89
2021/11/29 07:07:53;;;;;;;9.30;6.05;;;;;;;-145.06;0.00;60892.56;4820001;28;20290;-88
2021/11/29 07:10:33;;;;;;;10.98;7.15;;;;;;;187.52;0.00;60892.56;4818321;28;20037;-89
2021/11/29 07:13:13;;;;;;;14.20;7.38;;;;;;;-145.06;0.00;60892.56;4823109;28;20377;-89
2021/11/29 07:15:53;;;;;;;13.70;7.53;;;;;;;-145.06;0.00;60892.56;4814721;28;20838;-88
2021/11/29 07:18:31;;;;;;;10.87;6.23;;;;;;;-145.06;0.00;60892.56;4820185;28;20034;-89
2021/11/29 07:21:11;;;;;;;12.27;6.85;;;;;;;-145.06;0.00;60892.56;4813364;28;20667;-89
2021/11/29 07:23:53;;;;;;;10.88;6.70;;;;;;;-145.06;0.00;60892.56;4823732;28;20038;-88
2021/11/29 07:26:32;;;;;;;11.82;6.80;;;;;;;-145.06;0.00;60892.56;4807806;28;20034;-89
2021/11/29 07:29:14;;;;;;;12.33;7.60;;;;;;;-145.06;0.00;60892.56;4817727;28;20053;-87
2021/11/29 07:31:53;;;;;;;10.25;6.93;;;;;;;-145.06;0.00;60892.56;4820062;28;20034;-88
2021/11/29 07:34:32;;;;;;;14.00;7.40;;;;;;;-145.06;0.00;60892.56;4810489;28;20030;-89
2021/11/29 07:37:11;;;;;;;13.03;7.87;;;;;;;-145.06;0.00;60892.56;4817163;28;20038;-88
2021/11/29 07:39:52;;;;;;;12.85;7.85;;;;;;;-145.06;0.00;60892.56;4824643;28;20377;-89
2021/11/29 07:42:32;;;;;;;14.05;7.25;;;;;;;-145.06;0.00;60892.56;4817005;28;20038;-89
2021/11/29 07:45:12;;;;;;;12.93;7.03;;;;;;;-145.06;0.00;60892.56;4806697;28;20378;-89
2021/11/29 07:47:51;;;;;;;;;;;;;;;-145.06;0.00;60892.56;4818479;28;20058;-88
2021/11/29 07:50:33;;;;;;;12.20;7.05;;;;;;;-145.06;0.00;60892.56;4815678;28;19913;-88
2021/11/29 07:53:51;;;;;;;8.85;6.07;;;;;;;-145.06;0.00;60892.56;4823186;28;20034;-87
2021/11/29 07:56:30;;;;;;;13.77;7.57;;;;;;;-145.06;0.00;60892.56;4824619;28;20034;-88
2021/11/29 07:59:09;;;;;;;11.20;6.82;;;;;;;2.89;0.00;60892.56;4813542;28;20472;-89
2021/11/29 08:01:48;;;;;;;12.40;7.15;;;;;;;-145.06;0.00;60892.56;4816584;28;20035;-88
2021/11/29 08:04:27;;;;;;;7.77;5.93;;;;;;;-145.06;0.00;60892.56;4811910;28;20034;-88
2021/11/29 08:07:06;;;;;;;11.10;6.13;;;;;;;-145.06;0.00;60892.56;4813555;28;20117;-89
2021/11/29 08:09:45;;;;;;;9.45;6.35;;;;;;;-145.06;0.00;60892.56;4810667;28;20145;-88
2021/11/29 08:12:24;;;;;;;9.57;6.43;;;;;;;-145.06;0.00;60892.56;4816333;28;20121;-89
2021/11/29 08:15:04;;;;;;;9.10;5.28;;;;;;;10.68;0.00;60892.56;4817739;28;20511;-89
2021/11/29 08:17:43;;;;;;;;;;;;;;;-145.06;0.00;60892.56;4822454;28;20129;-89
2021/11/29 08:20:25;;;;;;;8.17;4.90;;;;;;;187.52;0.00;60892.56;4817337;28;19917;-88
2021/11/29 08:23:05;;;;;;;8.90;5.45;;;;;;;-145.06;0.00;60892.56;4827359;28;20038;-89
2021/11/29 08:25:44;;;;;;;8.98;5.88;;;;;;;187.52;0.00;60892.56;4812621;28;20038;-89
2021/11/29 08:28:22;;;;;;;12.57;5.88;;;;;;;-145.06;0.00;60892.56;4818938;28;20053;-88
2021/11/29 08:31:01;;;;;;;9.60;5.78;;;;;;;10.68;0.00;60892.56;4825929;28;20104;-87
2021/11/29 08:33:40;;;;;;;8.57;5.82;;;;;;;10.68;0.00;60892.56;4814687;28;20540;-87
2021/11/29 08:36:19;;;;;;;12.40;6.95;;;;;;;10.68;0.00;60892.56;4812997;28;20038;-88
2021/11/29 08:38:58;;;;;;;10.30;6.47;;;;;;;10.68;0.00;60892.56;4812804;28;20030;-88
2021/11/29 08:41:37;;;;;;;10.23;5.55;;;;;;;21.08;0.00;60892.56;4816947;28;20109;-88
2021/11/29 08:44:16;;;;;;;8.37;5.67;;;;;;;-145.06;0.00;60892.56;4815058;28;20113;-88
2021/11/29 08:46:56;;;;;;;7.83;5.30;;;;;;;-145.06;0.00;60892.56;4810352;28;20035;-88
2021/11/29 08:49:35;;;;;;;9.48;5.55;;;;;;;-145.06;0.00;60892.56;4814789;28;20038;-89
2021/11/29 08:52:14;;;;;;;9.05;5.90;;;;;;;-145.06;0.00;60892.56;4816575;28;20034;-88
2021/11/29 08:54:53;;;;;;;9.03;5.57;;;;;;;-145.06;0.00;60892.56;4817315;28;20043;-88
2021/11/29 08:57:34;;;;;;;8.77;5.32;;;;;;;2.73;0.00;60892.56;4828758;28;20597;-88
2021/11/29 09:00:17;;;;;;;7.80;5.10;;;;;;;2.81;0.00;60892.56;4818791;28;20078;-88
2021/11/29 09:02:58;;;;;;;7.80;5.20;;;;;;;-145.06;0.00;60892.56;4815651;28;20066;-89
2021/11/29 09:05:40;;;;;;;7.60;6.10;;;;;;;-145.06;0.00;60892.56;4809331;28;20031;-88
2021/11/29 09:08:19;;;;;;;11.02;6.47;;;;;;;-145.06;0.00;60892.56;4831358;28;20715;-88
2021/11/29 09:10:59;;;;;;;11.55;7.22;;;;;;;-145.06;0.00;60892.56;4808733;28;20042;-88
2021/11/29 09:13:40;;;;;;;9.98;6.05;;;;;;;-145.06;0.00;60892.56;4815467;28;20022;-89
2021/11/29 09:16:19;;;;;;;8.50;5.55;;;;;;;3.21;0.00;60892.56;4821854;28;20026;-89
2021/11/29 09:18:59;;;;;;;10.35;5.82;;;;;;;10.68;0.00;60892.56;4809308;28;20113;-89
2021/11/29 09:21:38;;;;;;;11.05;6.00;;;;;;;-145.06;0.00;60892.56;4818920;28;20113;-88
2021/11/29 09:24:17;;;;;;;9.15;5.82;;;;;;;-145.06;0.00;60892.56;4818686;28;20481;-88
2021/11/29 09:26:57;;;;;;;9.93;5.35;;;;;;;-145.06;0.00;60892.56;4818622;28;20030;-89
2021/11/29 09:29:39;;;;;;;;;;;;;;;-145.06;0.00;60892.56;4813765;28;20034;-89
2021/11/29 09:32:18;;;;;;;11.02;5.45;;;;;;;-145.06;0.00;60892.56;4827353;28;20351;-88
2021/11/29 09:34:57;;;;;;;13.73;6.53;;;;;;;-145.06;0.00;60892.56;4818886;28;20030;-89
2021/11/29 09:37:37;;;;;;;7.93;4.83;;;;;;;-145.06;0.00;60892.56;4819843;28;20022;-89
2021/11/29 09:40:20;;;;;;;8.82;4.88;;;;;;;-145.06;0.00;60892.56;4821370;28;20818;-89
2021/11/29 09:43:01;;;;;;;10.02;4.85;;;;;;;-145.06;0.00;60892.56;4818205;28;20026;-88
2021/11/29 09:45:43;;;;;;;10.38;5.72;;;;;;;-145.06;0.00;60892.56;4813634;28;20034;-89
2021/11/29 09:48:22;;;;;;;9.35;4.95;;;;;;;-145.06;0.00;60892.56;4818300;28;20058;-88
2021/11/29 09:51:01;;;;;;;8.95;4.50;;;;;;;-145.06;0.00;60892.56;4813993;28;20034;-88
2021/11/29 09:53:40;;;;;;;10.55;4.85;;;;;;;-145.06;0.00;60892.56;4818276;28;20027;-89
2021/11/29 09:56:19;;;;;;;8.38;4.53;;;;;;;-145.06;0.00;60892.56;4805367;28;20031;-88
2021/11/29 09:58:58;;;;;;;7.77;4.57;;;;;;;-145.06;0.00;60892.56;4810443;28;20571;-88
2021/11/29 10:01:41;;;;;;;8.23;4.00;;;;;;;-145.06;0.00;60892.56;4813677;28;20324;-88
2021/11/29 10:04:21;;;;;;;12.32;4.40;;;;;;;-145.06;0.00;60892.56;4827331;28;20471;-89
2021/11/29 10:07:03;;;;;;;10.95;4.45;;;;;;;-145.06;0.00;60892.56;4816352;28;20113;-89
2021/11/29 10:09:42;;;;;;;6.93;4.03;;;;;;;-145.06;0.00;60892.56;4821623;28;20038;-88
2021/11/29 10:12:21;;;;;;;9.17;3.80;;;;;;;-145.06;0.00;60892.56;4819487;28;20101;-87
2021/11/29 10:15:12;;;;;;;6.28;3.58;;;;;;;-145.06;0.00;60892.56;4818460;28;20026;-87
2021/11/29 10:18:00;;;;;;;5.47;3.13;;;;;;;-145.06;0.00;60892.56;4812347;28;20467;-88
2021/11/29 10:20:52;;;;;;;5.65;3.58;;;;;;;-145.06;0.00;60892.56;4818529;28;20038;-87
2021/11/29 10:23:38;;;;;;;6.93;3.20;;;;;;;-145.06;0.00;60892.56;4817527;28;20433;-87
2021/11/29 10:26:16;;;;;;;6.95;3.22;;;;;;;-145.06;0.00;60892.56;4818067;28;20030;-87
2021/11/29 10:28:59;;;;;;;5.23;3.13;;;;;;;-145.06;0.00;60892.56;4817774;28;20034;-87
2021/11/29 10:32:04;;;;;;;8.23;3.38;;;;;;;-145.06;0.00;60892.56;4812168;28;20054;-88
2021/11/29 10:34:43;;;;;;;6.50;4.03;;;;;;;-145.06;0.00;60892.56;4826806;28;20030;-87
2021/11/29 10:37:28;;;;;;;6.07;3.97;;;;;;;-145.06;0.00;60892.56;4826584;28;20121;-88
2021/11/29 10:40:11;;;;;;;7.20;3.90;;;;;;;187.52;0.00;60892.56;4817316;28;20486;-88
2021/11/29 10:42:50;;;;;;;8.68;3.67;;;;;;;-145.06;0.00;60892.56;4818078;28;20492;-87
2021/11/29 10:45:29;;;;;;;6.57;4.17;;;;;;;-145.06;0.00;60892.56;4802737;28;20034;-88
2021/11/29 10:48:24;;;;;;;5.43;3.53;;;;;;;-145.06;0.00;60892.56;4818183;28;20038;-89
2021/11/29 10:51:12;;;;;;;5.28;3.47;;;;;;;-145.06;0.00;60892.56;4818246;28;20696;-89
2021/11/29 10:54:05;;;;;;;7.30;4.00;;;;;;;-145.06;0.00;60892.56;4817475;28;20049;-89
2021/11/29 10:56:45;;;;;;;5.35;3.42;;;;;;;-145.06;0.00;60892.56;4817580;28;20092;-88
2021/11/29 10:59:30;;;;;;;4.05;3.00;;;;;;;-145.06;0.00;60892.56;4815922;28;20026;-87
2021/11/29 11:02:15;;;;;;;5.00;3.20;;;;;;;-145.06;0.00;60892.56;4817705;28;20023;-89
2021/11/29 11:05:06;;;;;;;4.78;3.03;;;;;;;-145.06;0.00;60892.56;4832235;28;20065;-87
2021/11/29 11:07:48;;;;;;;4.05;2.97;;;;;;;-145.06;0.00;60892.56;4820618;28;20042;-88
2021/11/29 11:10:33;;;;;;;3.80;2.72;;;;;;;-145.06;0.00;60892.56;4818196;28;20030;-87
2021/11/29 11:13:12;;;;;;;4.30;3.10;;;;;;;-145.06;0.00;60892.56;4816143;28;20022;-88
2021/11/29 11:15:51;;;;;;;4.40;2.73;;;;;;;-145.06;0.00;60892.56;4823251;28;20023;-89
2021/11/29 11:18:38;;;;;;;4.55;3.22;;;;;;;-145.06;0.00;60892.56;4814737;28;20109;-87
2021/11/29 11:21:17;;;;;;;5.15;3.15;;;;;;;-145.06;0.00;60892.56;4816877;28;20377;-87
2021/11/29 11:23:56;;;;;;;5.88;3.72;;;;;;;-145.06;0.00;60892.56;4817861;28;20542;-87
2021/11/29 11:26:35;;;;;;;6.45;3.70;;;;;;;-145.06;0.00;60892.56;4824951;28;20027;-87
2021/11/29 11:29:28;;;;;;;5.88;3.30;;;;;;;-145.06;0.00;60892.56;4836043;28;20042;-87
2021/11/29 11:32:18;;;;;;;4.78;2.75;;;;;;;3.61;0.00;60892.56;4818039;28;20061;-89
2021/11/29 11:35:05;;;;;;;4.50;2.97;;;;;;;-145.06;0.00;60892.56;4827764;28;20038;-88
2021/11/29 11:37:45;;;;;;;4.63;3.05;;;;;;;-145.06;0.00;60892.56;4817731;28;20027;-88
2021/11/29 11:40:30;;;;;;;4.20;2.50;;;;;;;-145.06;0.00;60892.56;4813887;28;20038;-88
2021/11/29 11:43:11;;;;;;;3.80;2.45;;;;;;;10.68;0.00;60892.56;4817519;28;20034;-88
2021/11/29 11:45:52;;;;;;;3.90;2.33;;;;;;;-145.06;0.00;60892.56;4823200;28;20587;-88
2021/11/29 11:48:34;;;;;;;2.42;1.95;;;;;;;-145.06;0.00;60892.56;4823422;28;20475;-87
2021/11/29 11:51:13;;;;;;;4.32;2.20;;;;;;;-145.06;0.00;60892.56;4822258;28;20369;-88
2021/11/29 11:53:52;;;;;;;3.70;2.35;;;;;;;-145.06;0.00;60892.56;4809022;28;20038;-88
2021/11/29 11:56:31;;;;;;;4.10;2.30;;;;;;;-145.06;0.00;60892.56;4828728;28;20038;-88
2021/11/29 11:59:13;;;;;;;4.67;3.00;;;;;;;-145.06;0.00;60892.56;4821294;28;20030;-88
2021/11/29 12:01:56;;;;;;;6.47;2.50;;;;;;;-145.06;0.00;60892.56;4817207;28;20282;-88
2021/11/29 12:04:35;;;;;;;2.53;2.00;;;;;;;4.19;0.00;60892.56;4826407;28;20053;-88
2021/11/29 12:07:32;;;;;;;2.50;2.20;;;;;;;-145.06;0.00;60892.56;4813718;28;20070;-88
2021/11/29 12:10:38;;;;;;;4.57;2.40;;;;;;;-145.06;0.00;60892.56;4827418;28;20373;-88
2021/11/29 12:13:17;;;;;;;3.55;2.05;;;;;;;-145.06;0.00;60892.56;4818682;28;20030;-88
2021/11/29 12:15:57;;;;;;;4.13;2.08;;;;;;;-145.06;0.00;60892.56;4835451;28;20593;-88
2021/11/29 12:18:39;;;;;;;2.00;1.75;;;;;;;21.08;0.00;60892.56;4821119;28;20492;-89
2021/11/29 12:21:27;;;;;;;3.92;2.30;;;;;;;3.94;0.00;60892.56;4825762;28;20523;-87
2021/11/29 12:24:12;;;;;;;2.50;2.00;;;;;;;-145.06;0.00;60892.56;4813435;28;20030;-88
2021/11/29 12:26:54;;;;;;;2.55;1.90;;;;;;;187.52;0.00;60892.56;4824882;28;20488;-87
2021/11/29 12:29:33;;;;;;;2.92;1.92;;;;;;;-145.06;0.00;60892.56;4819687;28;20192;-87
2021/11/29 12:32:15;;;;;;;5.40;2.67;;;;;;;187.52;0.00;60892.56;4821314;28;20034;-88